sensor_id;sensor_type;location;lat;lon;timestamp;P1;durP1;ratioP1;P2;durP2;ratioP2
62332;SDS011;48624;49.812;8.562;2023-03-01T00:00:20;16.33;;;9.37;;
62332;SDS011;48624;49.812;8.562;2023-03-01T00:02:45;12.83;;;7.57;;
62332;SDS011;48624;49.812;8.562;2023-03-01T00:05:11;14.93;;;8.90;;
62332;SDS011;48624;49.812;8.562;2023-03-01T00:07:36;18.43;;;9.83;;
62332;SDS011;48624;49.812;8.562;2023-03-01T00:10:01;12.33;;;8.10;;
62332;SDS011;48624;49.812;8.562;2023-03-01T00:12:27;20.93;;;10.23;;
62332;SDS011;48624;49.812;8.562;2023-03-01T00:14:52;15.10;;;9.80;;
62332;SDS011;48624;49.812;8.562;2023-03-01T00:17:18;15.60;;;9.07;;
62332;SDS011;48624;49.812;8.562;2023-03-01T00:19:43;14.27;;;9.00;;
62332;SDS011;48624;49.812;8.562;2023-03-01T00:22:09;15.83;;;9.43;;
62332;SDS011;48624;49.812;8.562;2023-03-01T00:24:35;16.83;;;8.80;;
62332;SDS011;48624;49.812;8.562;2023-03-01T00:27:00;14.17;;;8.90;;
62332;SDS011;48624;49.812;8.562;2023-03-01T00:29:25;18.17;;;9.40;;
62332;SDS011;48624;49.812;8.562;2023-03-01T00:31:51;14.33;;;9.17;;
62332;SDS011;48624;49.812;8.562;2023-03-01T00:34:16;14.83;;;8.60;;
62332;SDS011;48624;49.812;8.562;2023-03-01T00:36:42;16.53;;;9.33;;
62332;SDS011;48624;49.812;8.562;2023-03-01T00:39:09;14.10;;;8.47;;
62332;SDS011;48624;49.812;8.562;2023-03-01T00:41:37;14.60;;;9.63;;
62332;SDS011;48624;49.812;8.562;2023-03-01T00:44:02;17.43;;;9.90;;
62332;SDS011;48624;49.812;8.562;2023-03-01T00:46:28;13.80;;;9.10;;
62332;SDS011;48624;49.812;8.562;2023-03-01T00:48:55;16.17;;;9.53;;
62332;SDS011;48624;49.812;8.562;2023-03-01T00:51:22;18.50;;;10.57;;
62332;SDS011;48624;49.812;8.562;2023-03-01T00:53:50;15.53;;;9.17;;
62332;SDS011;48624;49.812;8.562;2023-03-01T00:56:17;18.17;;;9.97;;
62332;SDS011;48624;49.812;8.562;2023-03-01T00:58:42;17.00;;;9.73;;
62332;SDS011;48624;49.812;8.562;2023-03-01T01:01:11;17.40;;;9.93;;
62332;SDS011;48624;49.812;8.562;2023-03-01T01:06:15;16.17;;;9.80;;
62332;SDS011;48624;49.812;8.562;2023-03-01T01:08:42;14.87;;;8.80;;
62332;SDS011;48624;49.812;8.562;2023-03-01T01:11:08;16.17;;;9.70;;
62332;SDS011;48624;49.812;8.562;2023-03-01T01:13:35;18.47;;;10.03;;
62332;SDS011;48624;49.812;8.562;2023-03-01T01:16:00;19.10;;;9.80;;
62332;SDS011;48624;49.812;8.562;2023-03-01T01:18:26;19.23;;;10.20;;
62332;SDS011;48624;49.812;8.562;2023-03-01T01:20:52;18.27;;;10.80;;
62332;SDS011;48624;49.812;8.562;2023-03-01T01:23:17;17.13;;;10.00;;
62332;SDS011;48624;49.812;8.562;2023-03-01T01:25:42;19.43;;;10.27;;
62332;SDS011;48624;49.812;8.562;2023-03-01T01:28:07;17.57;;;10.73;;
62332;SDS011;48624;49.812;8.562;2023-03-01T01:30:33;19.23;;;10.20;;
62332;SDS011;48624;49.812;8.562;2023-03-01T01:32:58;17.70;;;10.27;;
62332;SDS011;48624;49.812;8.562;2023-03-01T01:35:23;18.23;;;10.30;;
62332;SDS011;48624;49.812;8.562;2023-03-01T01:37:49;20.43;;;10.67;;
62332;SDS011;48624;49.812;8.562;2023-03-01T01:40:14;17.83;;;9.60;;
62332;SDS011;48624;49.812;8.562;2023-03-01T01:42:40;19.33;;;10.33;;
62332;SDS011;48624;49.812;8.562;2023-03-01T01:47:49;26.33;;;10.13;;
62332;SDS011;48624;49.812;8.562;2023-03-01T01:50:17;16.40;;;10.13;;
62332;SDS011;48624;49.812;8.562;2023-03-01T01:52:44;19.50;;;11.63;;
62332;SDS011;48624;49.812;8.562;2023-03-01T01:55:11;19.13;;;9.67;;
62332;SDS011;48624;49.812;8.562;2023-03-01T01:57:45;18.03;;;10.33;;
62332;SDS011;48624;49.812;8.562;2023-03-01T02:00:16;19.57;;;11.63;;
62332;SDS011;48624;49.812;8.562;2023-03-01T02:02:45;17.57;;;9.80;;
62332;SDS011;48624;49.812;8.562;2023-03-01T02:08:13;19.37;;;11.13;;
62332;SDS011;48624;49.812;8.562;2023-03-01T02:10:41;19.63;;;11.73;;
62332;SDS011;48624;49.812;8.562;2023-03-01T02:13:07;22.87;;;12.20;;
62332;SDS011;48624;49.812;8.562;2023-03-01T02:15:32;18.80;;;10.83;;
62332;SDS011;48624;49.812;8.562;2023-03-01T02:18:00;20.20;;;11.67;;
62332;SDS011;48624;49.812;8.562;2023-03-01T02:20:29;20.60;;;11.27;;
62332;SDS011;48624;49.812;8.562;2023-03-01T02:23:04;19.37;;;11.13;;
62332;SDS011;48624;49.812;8.562;2023-03-01T02:28:18;19.63;;;10.90;;
62332;SDS011;48624;49.812;8.562;2023-03-01T02:30:47;20.50;;;11.33;;
62332;SDS011;48624;49.812;8.562;2023-03-01T02:33:34;19.97;;;10.60;;
62332;SDS011;48624;49.812;8.562;2023-03-01T02:36:01;19.07;;;10.60;;
62332;SDS011;48624;49.812;8.562;2023-03-01T02:38:31;19.03;;;10.67;;
62332;SDS011;48624;49.812;8.562;2023-03-01T02:40:57;14.53;;;10.07;;
62332;SDS011;48624;49.812;8.562;2023-03-01T02:43:23;22.17;;;11.57;;
62332;SDS011;48624;49.812;8.562;2023-03-01T02:45:58;22.43;;;11.63;;
62332;SDS011;48624;49.812;8.562;2023-03-01T02:48:27;16.67;;;9.87;;
62332;SDS011;48624;49.812;8.562;2023-03-01T02:51:02;19.40;;;11.17;;
62332;SDS011;48624;49.812;8.562;2023-03-01T02:53:41;20.40;;;12.23;;
62332;SDS011;48624;49.812;8.562;2023-03-01T02:56:14;17.77;;;10.77;;
62332;SDS011;48624;49.812;8.562;2023-03-01T02:58:41;18.83;;;10.87;;
62332;SDS011;48624;49.812;8.562;2023-03-01T03:01:16;16.80;;;9.83;;
62332;SDS011;48624;49.812;8.562;2023-03-01T03:03:41;17.63;;;10.40;;
62332;SDS011;48624;49.812;8.562;2023-03-01T03:06:07;22.13;;;10.43;;
62332;SDS011;48624;49.812;8.562;2023-03-01T03:08:33;17.23;;;9.90;;
62332;SDS011;48624;49.812;8.562;2023-03-01T03:10:58;20.50;;;11.03;;
62332;SDS011;48624;49.812;8.562;2023-03-01T03:13:24;18.80;;;11.47;;
62332;SDS011;48624;49.812;8.562;2023-03-01T03:15:53;18.87;;;10.53;;
62332;SDS011;48624;49.812;8.562;2023-03-01T03:18:19;21.37;;;11.80;;
62332;SDS011;48624;49.812;8.562;2023-03-01T03:20:45;19.00;;;10.47;;
62332;SDS011;48624;49.812;8.562;2023-03-01T03:23:10;19.43;;;10.37;;
62332;SDS011;48624;49.812;8.562;2023-03-01T03:25:36;22.27;;;11.23;;
62332;SDS011;48624;49.812;8.562;2023-03-01T03:28:02;20.13;;;10.40;;
62332;SDS011;48624;49.812;8.562;2023-03-01T03:30:34;20.03;;;9.80;;
62332;SDS011;48624;49.812;8.562;2023-03-01T03:33:01;20.10;;;11.57;;
62332;SDS011;48624;49.812;8.562;2023-03-01T03:35:27;20.57;;;11.13;;
62332;SDS011;48624;49.812;8.562;2023-03-01T03:37:58;22.37;;;12.23;;
62332;SDS011;48624;49.812;8.562;2023-03-01T03:40:29;21.27;;;11.97;;
62332;SDS011;48624;49.812;8.562;2023-03-01T03:42:58;21.37;;;12.50;;
62332;SDS011;48624;49.812;8.562;2023-03-01T03:45:23;22.67;;;12.80;;
62332;SDS011;48624;49.812;8.562;2023-03-01T03:47:49;23.43;;;12.10;;
62332;SDS011;48624;49.812;8.562;2023-03-01T03:50:14;25.33;;;11.80;;
62332;SDS011;48624;49.812;8.562;2023-03-01T03:52:41;20.63;;;11.70;;
62332;SDS011;48624;49.812;8.562;2023-03-01T03:55:08;24.60;;;12.43;;
62332;SDS011;48624;49.812;8.562;2023-03-01T03:57:39;19.63;;;11.40;;
62332;SDS011;48624;49.812;8.562;2023-03-01T04:00:06;23.23;;;11.23;;
62332;SDS011;48624;49.812;8.562;2023-03-01T04:02:47;23.43;;;12.27;;
62332;SDS011;48624;49.812;8.562;2023-03-01T04:05:14;17.90;;;10.03;;
62332;SDS011;48624;49.812;8.562;2023-03-01T04:07:41;19.03;;;11.37;;
62332;SDS011;48624;49.812;8.562;2023-03-01T04:10:11;26.33;;;11.93;;
62332;SDS011;48624;49.812;8.562;2023-03-01T04:12:39;21.73;;;11.27;;
62332;SDS011;48624;49.812;8.562;2023-03-01T04:15:05;24.33;;;11.13;;
62332;SDS011;48624;49.812;8.562;2023-03-01T04:17:44;23.60;;;12.97;;
62332;SDS011;48624;49.812;8.562;2023-03-01T04:20:12;17.40;;;10.33;;
62332;SDS011;48624;49.812;8.562;2023-03-01T04:22:39;21.40;;;11.70;;
62332;SDS011;48624;49.812;8.562;2023-03-01T04:25:05;22.87;;;11.60;;
62332;SDS011;48624;49.812;8.562;2023-03-01T04:27:33;23.30;;;10.50;;
62332;SDS011;48624;49.812;8.562;2023-03-01T04:29:59;21.20;;;11.77;;
62332;SDS011;48624;49.812;8.562;2023-03-01T04:32:24;18.23;;;11.70;;
62332;SDS011;48624;49.812;8.562;2023-03-01T04:34:49;21.57;;;10.93;;
62332;SDS011;48624;49.812;8.562;2023-03-01T04:37:15;17.20;;;11.13;;
62332;SDS011;48624;49.812;8.562;2023-03-01T04:39:40;19.77;;;11.10;;
62332;SDS011;48624;49.812;8.562;2023-03-01T04:42:10;24.17;;;11.97;;
62332;SDS011;48624;49.812;8.562;2023-03-01T04:44:36;19.73;;;11.57;;
62332;SDS011;48624;49.812;8.562;2023-03-01T04:47:01;20.47;;;11.67;;
62332;SDS011;48624;49.812;8.562;2023-03-01T04:49:27;25.30;;;11.53;;
62332;SDS011;48624;49.812;8.562;2023-03-01T04:51:52;23.10;;;11.63;;
62332;SDS011;48624;49.812;8.562;2023-03-01T04:54:17;22.87;;;12.37;;
62332;SDS011;48624;49.812;8.562;2023-03-01T04:56:43;19.47;;;10.93;;
62332;SDS011;48624;49.812;8.562;2023-03-01T04:59:08;23.77;;;12.07;;
62332;SDS011;48624;49.812;8.562;2023-03-01T05:01:35;21.40;;;11.63;;
62332;SDS011;48624;49.812;8.562;2023-03-01T05:04:00;20.63;;;11.40;;
62332;SDS011;48624;49.812;8.562;2023-03-01T05:06:28;22.03;;;12.40;;
62332;SDS011;48624;49.812;8.562;2023-03-01T05:08:53;24.23;;;14.70;;
62332;SDS011;48624;49.812;8.562;2023-03-01T05:11:19;25.70;;;13.63;;
62332;SDS011;48624;49.812;8.562;2023-03-01T05:13:44;24.23;;;12.93;;
62332;SDS011;48624;49.812;8.562;2023-03-01T05:16:10;28.80;;;15.57;;
62332;SDS011;48624;49.812;8.562;2023-03-01T05:18:35;27.00;;;14.37;;
62332;SDS011;48624;49.812;8.562;2023-03-01T05:21:02;31.00;;;13.10;;
62332;SDS011;48624;49.812;8.562;2023-03-01T05:23:30;25.63;;;13.37;;
62332;SDS011;48624;49.812;8.562;2023-03-01T05:26:00;24.17;;;13.47;;
62332;SDS011;48624;49.812;8.562;2023-03-01T05:28:27;21.93;;;11.90;;
62332;SDS011;48624;49.812;8.562;2023-03-01T05:30:55;26.87;;;13.00;;
62332;SDS011;48624;49.812;8.562;2023-03-01T05:33:21;26.57;;;13.57;;
62332;SDS011;48624;49.812;8.562;2023-03-01T05:35:47;23.60;;;12.53;;
62332;SDS011;48624;49.812;8.562;2023-03-01T05:38:14;24.73;;;13.97;;
62332;SDS011;48624;49.812;8.562;2023-03-01T05:40:41;23.10;;;13.63;;
62332;SDS011;48624;49.812;8.562;2023-03-01T05:43:08;21.50;;;12.13;;
62332;SDS011;48624;49.812;8.562;2023-03-01T05:45:35;24.97;;;14.00;;
62332;SDS011;48624;49.812;8.562;2023-03-01T05:48:02;25.77;;;12.67;;
62332;SDS011;48624;49.812;8.562;2023-03-01T05:50:31;23.03;;;12.37;;
62332;SDS011;48624;49.812;8.562;2023-03-01T05:55:27;24.10;;;13.83;;
62332;SDS011;48624;49.812;8.562;2023-03-01T05:57:54;25.20;;;13.30;;
62332;SDS011;48624;49.812;8.562;2023-03-01T06:00:21;24.50;;;13.83;;
62332;SDS011;48624;49.812;8.562;2023-03-01T06:02:47;28.87;;;13.73;;
62332;SDS011;48624;49.812;8.562;2023-03-01T06:05:13;22.27;;;13.00;;
62332;SDS011;48624;49.812;8.562;2023-03-01T06:07:39;25.93;;;13.73;;
62332;SDS011;48624;49.812;8.562;2023-03-01T06:10:05;26.80;;;14.27;;
62332;SDS011;48624;49.812;8.562;2023-03-01T06:12:32;25.13;;;12.77;;
62332;SDS011;48624;49.812;8.562;2023-03-01T06:14:58;26.90;;;14.37;;
62332;SDS011;48624;49.812;8.562;2023-03-01T06:17:24;26.13;;;13.60;;
62332;SDS011;48624;49.812;8.562;2023-03-01T06:19:49;24.43;;;13.87;;
62332;SDS011;48624;49.812;8.562;2023-03-01T06:22:14;25.63;;;13.60;;
62332;SDS011;48624;49.812;8.562;2023-03-01T06:24:40;25.13;;;13.07;;
62332;SDS011;48624;49.812;8.562;2023-03-01T06:27:05;27.10;;;13.83;;
62332;SDS011;48624;49.812;8.562;2023-03-01T06:29:30;23.80;;;13.80;;
62332;SDS011;48624;49.812;8.562;2023-03-01T06:31:56;21.67;;;12.57;;
62332;SDS011;48624;49.812;8.562;2023-03-01T06:34:21;29.37;;;13.87;;
62332;SDS011;48624;49.812;8.562;2023-03-01T06:36:46;22.27;;;13.33;;
62332;SDS011;48624;49.812;8.562;2023-03-01T06:39:12;24.37;;;12.83;;
62332;SDS011;48624;49.812;8.562;2023-03-01T06:41:37;26.10;;;14.07;;
62332;SDS011;48624;49.812;8.562;2023-03-01T06:44:02;31.07;;;13.97;;
62332;SDS011;48624;49.812;8.562;2023-03-01T06:46:28;25.33;;;13.70;;
62332;SDS011;48624;49.812;8.562;2023-03-01T06:48:53;27.33;;;13.07;;
62332;SDS011;48624;49.812;8.562;2023-03-01T06:51:18;31.30;;;16.03;;
62332;SDS011;48624;49.812;8.562;2023-03-01T06:53:45;26.77;;;14.43;;
62332;SDS011;48624;49.812;8.562;2023-03-01T06:56:11;23.83;;;13.67;;
62332;SDS011;48624;49.812;8.562;2023-03-01T06:58:36;23.67;;;12.20;;
62332;SDS011;48624;49.812;8.562;2023-03-01T07:01:05;26.10;;;12.83;;
62332;SDS011;48624;49.812;8.562;2023-03-01T07:03:31;25.70;;;13.13;;
62332;SDS011;48624;49.812;8.562;2023-03-01T07:05:56;29.57;;;14.63;;
62332;SDS011;48624;49.812;8.562;2023-03-01T07:08:21;28.27;;;15.00;;
62332;SDS011;48624;49.812;8.562;2023-03-01T07:10:47;25.70;;;13.80;;
62332;SDS011;48624;49.812;8.562;2023-03-01T07:13:12;26.13;;;13.97;;
62332;SDS011;48624;49.812;8.562;2023-03-01T07:15:39;23.80;;;14.03;;
62332;SDS011;48624;49.812;8.562;2023-03-01T07:18:05;25.17;;;14.33;;
62332;SDS011;48624;49.812;8.562;2023-03-01T07:20:30;27.37;;;14.27;;
62332;SDS011;48624;49.812;8.562;2023-03-01T07:22:55;26.83;;;13.63;;
62332;SDS011;48624;49.812;8.562;2023-03-01T07:25:23;26.40;;;13.43;;
62332;SDS011;48624;49.812;8.562;2023-03-01T07:27:52;28.53;;;14.60;;
62332;SDS011;48624;49.812;8.562;2023-03-01T07:30:19;21.30;;;12.37;;
62332;SDS011;48624;49.812;8.562;2023-03-01T07:32:45;23.30;;;13.77;;
62332;SDS011;48624;49.812;8.562;2023-03-01T07:35:11;24.60;;;13.30;;
62332;SDS011;48624;49.812;8.562;2023-03-01T07:37:36;25.23;;;14.63;;
62332;SDS011;48624;49.812;8.562;2023-03-01T07:40:02;25.53;;;14.27;;
62332;SDS011;48624;49.812;8.562;2023-03-01T07:42:27;19.27;;;12.97;;
62332;SDS011;48624;49.812;8.562;2023-03-01T07:44:52;29.33;;;14.13;;
62332;SDS011;48624;49.812;8.562;2023-03-01T07:47:18;26.13;;;13.90;;
62332;SDS011;48624;49.812;8.562;2023-03-01T07:49:45;25.03;;;13.10;;
62332;SDS011;48624;49.812;8.562;2023-03-01T07:52:10;22.03;;;12.57;;
62332;SDS011;48624;49.812;8.562;2023-03-01T07:54:36;28.17;;;13.80;;
62332;SDS011;48624;49.812;8.562;2023-03-01T07:57:02;23.80;;;14.00;;
62332;SDS011;48624;49.812;8.562;2023-03-01T07:59:27;23.57;;;13.17;;
62332;SDS011;48624;49.812;8.562;2023-03-01T08:01:55;25.17;;;14.57;;
62332;SDS011;48624;49.812;8.562;2023-03-01T08:04:21;24.10;;;14.27;;
62332;SDS011;48624;49.812;8.562;2023-03-01T08:06:48;20.60;;;11.50;;
62332;SDS011;48624;49.812;8.562;2023-03-01T08:09:13;26.27;;;12.90;;
62332;SDS011;48624;49.812;8.562;2023-03-01T08:11:39;21.47;;;11.27;;
62332;SDS011;48624;49.812;8.562;2023-03-01T08:14:05;25.20;;;12.63;;
62332;SDS011;48624;49.812;8.562;2023-03-01T08:16:31;25.50;;;13.40;;
62332;SDS011;48624;49.812;8.562;2023-03-01T08:19:02;21.60;;;12.10;;
62332;SDS011;48624;49.812;8.562;2023-03-01T08:21:28;19.47;;;11.37;;
62332;SDS011;48624;49.812;8.562;2023-03-01T08:23:54;18.17;;;10.77;;
62332;SDS011;48624;49.812;8.562;2023-03-01T08:26:20;23.03;;;12.90;;
62332;SDS011;48624;49.812;8.562;2023-03-01T08:28:46;16.47;;;10.10;;
62332;SDS011;48624;49.812;8.562;2023-03-01T08:31:20;19.53;;;10.67;;
62332;SDS011;48624;49.812;8.562;2023-03-01T08:33:48;19.40;;;11.27;;
62332;SDS011;48624;49.812;8.562;2023-03-01T08:36:20;15.80;;;9.27;;
62332;SDS011;48624;49.812;8.562;2023-03-01T08:38:53;14.73;;;9.23;;
62332;SDS011;48624;49.812;8.562;2023-03-01T08:41:19;16.20;;;10.70;;
62332;SDS011;48624;49.812;8.562;2023-03-01T08:43:45;17.17;;;10.47;;
62332;SDS011;48624;49.812;8.562;2023-03-01T08:46:11;20.57;;;12.03;;
62332;SDS011;48624;49.812;8.562;2023-03-01T08:48:37;17.67;;;10.47;;
62332;SDS011;48624;49.812;8.562;2023-03-01T08:51:09;17.70;;;10.77;;
62332;SDS011;48624;49.812;8.562;2023-03-01T08:53:39;19.10;;;11.30;;
62332;SDS011;48624;49.812;8.562;2023-03-01T08:56:05;19.70;;;10.90;;
62332;SDS011;48624;49.812;8.562;2023-03-01T08:58:30;17.07;;;9.30;;
62332;SDS011;48624;49.812;8.562;2023-03-01T09:00:56;16.47;;;9.93;;
62332;SDS011;48624;49.812;8.562;2023-03-01T09:03:22;13.10;;;8.07;;
62332;SDS011;48624;49.812;8.562;2023-03-01T09:05:48;19.43;;;11.23;;
62332;SDS011;48624;49.812;8.562;2023-03-01T09:08:15;15.80;;;10.13;;
62332;SDS011;48624;49.812;8.562;2023-03-01T09:10:41;16.50;;;9.97;;
62332;SDS011;48624;49.812;8.562;2023-03-01T09:13:06;16.97;;;9.63;;
62332;SDS011;48624;49.812;8.562;2023-03-01T09:15:31;18.00;;;9.33;;
62332;SDS011;48624;49.812;8.562;2023-03-01T09:17:58;15.97;;;10.73;;
62332;SDS011;48624;49.812;8.562;2023-03-01T09:20:24;16.77;;;9.77;;
62332;SDS011;48624;49.812;8.562;2023-03-01T09:22:49;17.97;;;11.60;;
62332;SDS011;48624;49.812;8.562;2023-03-01T09:25:14;17.83;;;9.93;;
62332;SDS011;48624;49.812;8.562;2023-03-01T09:27:40;19.40;;;10.87;;
62332;SDS011;48624;49.812;8.562;2023-03-01T09:30:05;15.67;;;10.40;;
62332;SDS011;48624;49.812;8.562;2023-03-01T09:32:32;12.27;;;6.70;;
62332;SDS011;48624;49.812;8.562;2023-03-01T09:34:57;16.63;;;9.83;;
62332;SDS011;48624;49.812;8.562;2023-03-01T09:37:30;17.83;;;9.50;;
62332;SDS011;48624;49.812;8.562;2023-03-01T09:39:57;21.27;;;11.87;;
62332;SDS011;48624;49.812;8.562;2023-03-01T09:42:22;17.83;;;10.57;;
62332;SDS011;48624;49.812;8.562;2023-03-01T09:44:51;15.53;;;10.53;;
62332;SDS011;48624;49.812;8.562;2023-03-01T09:50:15;20.38;;;11.65;;
62332;SDS011;48624;49.812;8.562;2023-03-01T09:55:20;18.35;;;9.75;;
62332;SDS011;48624;49.812;8.562;2023-03-01T09:58:06;16.52;;;10.40;;
62332;SDS011;48624;49.812;8.562;2023-03-01T10:00:47;18.83;;;10.90;;
62332;SDS011;48624;49.812;8.562;2023-03-01T10:03:34;16.20;;;9.70;;
62332;SDS011;48624;49.812;8.562;2023-03-01T10:08:53;19.05;;;10.95;;
62332;SDS011;48624;49.812;8.562;2023-03-01T10:14:03;22.33;;;11.30;;
62332;SDS011;48624;49.812;8.562;2023-03-01T10:20:05;17.15;;;9.75;;
62332;SDS011;48624;49.812;8.562;2023-03-01T10:22:16;19.25;;;11.18;;
62332;SDS011;48624;49.812;8.562;2023-03-01T10:24:46;20.35;;;11.23;;
62332;SDS011;48624;49.812;8.562;2023-03-01T10:27:21;14.75;;;9.13;;
62332;SDS011;48624;49.812;8.562;2023-03-01T10:30:06;18.40;;;10.95;;
62332;SDS011;48624;49.812;8.562;2023-03-01T10:32:34;23.00;;;11.25;;
62332;SDS011;48624;49.812;8.562;2023-03-01T10:35:00;18.33;;;11.15;;
62332;SDS011;48624;49.812;8.562;2023-03-01T10:37:25;19.80;;;12.18;;
62332;SDS011;48624;49.812;8.562;2023-03-01T10:42:33;21.40;;;11.38;;
62332;SDS011;48624;49.812;8.562;2023-03-01T10:45:14;20.33;;;13.02;;
62332;SDS011;48624;49.812;8.562;2023-03-01T10:50:38;19.58;;;12.88;;
62332;SDS011;48624;49.812;8.562;2023-03-01T10:53:10;17.98;;;11.70;;
62332;SDS011;48624;49.812;8.562;2023-03-01T10:55:47;21.50;;;12.35;;
62332;SDS011;48624;49.812;8.562;2023-03-01T10:58:25;20.00;;;12.68;;
62332;SDS011;48624;49.812;8.562;2023-03-01T11:00:56;19.05;;;12.57;;
62332;SDS011;48624;49.812;8.562;2023-03-01T11:11:41;19.25;;;11.60;;
62332;SDS011;48624;49.812;8.562;2023-03-01T11:14:12;16.83;;;10.85;;
62332;SDS011;48624;49.812;8.562;2023-03-01T11:16:44;20.42;;;12.70;;
62332;SDS011;48624;49.812;8.562;2023-03-01T11:24:36;17.67;;;10.77;;
62332;SDS011;48624;49.812;8.562;2023-03-01T11:27:31;19.42;;;10.80;;
62332;SDS011;48624;49.812;8.562;2023-03-01T11:32:45;16.63;;;12.05;;
62332;SDS011;48624;49.812;8.562;2023-03-01T11:35:18;16.30;;;11.23;;
62332;SDS011;48624;49.812;8.562;2023-03-01T11:37:56;19.55;;;11.38;;
62332;SDS011;48624;49.812;8.562;2023-03-01T11:45:33;17.23;;;10.60;;
62332;SDS011;48624;49.812;8.562;2023-03-01T11:51:05;12.00;;;8.38;;
62332;SDS011;48624;49.812;8.562;2023-03-01T12:12:31;13.50;;;9.55;;
62332;SDS011;48624;49.812;8.562;2023-03-01T12:18:38;13.32;;;7.60;;
62332;SDS011;48624;49.812;8.562;2023-03-01T12:29:12;9.40;;;7.53;;
62332;SDS011;48624;49.812;8.562;2023-03-01T12:31:47;12.02;;;7.70;;
62332;SDS011;48624;49.812;8.562;2023-03-01T12:37:21;14.90;;;7.68;;
62332;SDS011;48624;49.812;8.562;2023-03-01T12:50:41;11.68;;;8.65;;
62332;SDS011;48624;49.812;8.562;2023-03-01T12:53:22;11.05;;;8.18;;
62332;SDS011;48624;49.812;8.562;2023-03-01T12:55:49;12.48;;;8.27;;
62332;SDS011;48624;49.812;8.562;2023-03-01T12:58:24;12.13;;;8.93;;
62332;SDS011;48624;49.812;8.562;2023-03-01T13:01:18;12.40;;;8.05;;
62332;SDS011;48624;49.812;8.562;2023-03-01T13:04:06;11.55;;;8.07;;
62332;SDS011;48624;49.812;8.562;2023-03-01T13:06:43;10.60;;;6.68;;
62332;SDS011;48624;49.812;8.562;2023-03-01T13:09:20;13.15;;;7.63;;
62332;SDS011;48624;49.812;8.562;2023-03-01T13:17:47;12.35;;;8.02;;
62332;SDS011;48624;49.812;8.562;2023-03-01T13:20:18;11.30;;;6.93;;
62332;SDS011;48624;49.812;8.562;2023-03-01T13:33:48;12.55;;;7.32;;
62332;SDS011;48624;49.812;8.562;2023-03-01T13:38:57;9.23;;;5.88;;
62332;SDS011;48624;49.812;8.562;2023-03-01T13:46:48;9.57;;;6.80;;
62332;SDS011;48624;49.812;8.562;2023-03-01T13:49:20;12.23;;;8.50;;
62332;SDS011;48624;49.812;8.562;2023-03-01T13:51:49;12.60;;;7.82;;
62332;SDS011;48624;49.812;8.562;2023-03-01T13:54:16;11.60;;;7.75;;
62332;SDS011;48624;49.812;8.562;2023-03-01T13:56:55;10.40;;;7.70;;
62332;SDS011;48624;49.812;8.562;2023-03-01T13:59:22;8.43;;;5.85;;
62332;SDS011;48624;49.812;8.562;2023-03-01T14:01:51;13.98;;;7.57;;
62332;SDS011;48624;49.812;8.562;2023-03-01T14:04:23;13.10;;;7.85;;
62332;SDS011;48624;49.812;8.562;2023-03-01T14:06:50;9.63;;;7.35;;
62332;SDS011;48624;49.812;8.562;2023-03-01T14:09:17;11.20;;;7.70;;
62332;SDS011;48624;49.812;8.562;2023-03-01T14:17:37;9.38;;;6.75;;
62332;SDS011;48624;49.812;8.562;2023-03-01T14:20:19;9.50;;;7.32;;
62332;SDS011;48624;49.812;8.562;2023-03-01T14:22:47;12.07;;;6.32;;
62332;SDS011;48624;49.812;8.562;2023-03-01T14:25:24;11.10;;;6.90;;
62332;SDS011;48624;49.812;8.562;2023-03-01T14:28:35;9.05;;;6.88;;
62332;SDS011;48624;49.812;8.562;2023-03-01T14:30:51;10.32;;;6.15;;
62332;SDS011;48624;49.812;8.562;2023-03-01T14:33:25;10.35;;;6.28;;
62332;SDS011;48624;49.812;8.562;2023-03-01T14:36:01;11.93;;;6.95;;
62332;SDS011;48624;49.812;8.562;2023-03-01T14:38:36;9.45;;;6.32;;
62332;SDS011;48624;49.812;8.562;2023-03-01T14:41:10;12.85;;;6.57;;
62332;SDS011;48624;49.812;8.562;2023-03-01T14:43:41;10.32;;;6.95;;
62332;SDS011;48624;49.812;8.562;2023-03-01T14:46:19;7.97;;;5.28;;
62332;SDS011;48624;49.812;8.562;2023-03-01T14:48:48;10.75;;;6.72;;
62332;SDS011;48624;49.812;8.562;2023-03-01T14:51:18;7.95;;;6.30;;
62332;SDS011;48624;49.812;8.562;2023-03-01T14:53:43;12.43;;;7.82;;
62332;SDS011;48624;49.812;8.562;2023-03-01T14:56:13;12.15;;;7.05;;
62332;SDS011;48624;49.812;8.562;2023-03-01T14:58:40;9.68;;;6.30;;
62332;SDS011;48624;49.812;8.562;2023-03-01T15:01:06;8.15;;;6.60;;
62332;SDS011;48624;49.812;8.562;2023-03-01T15:03:35;8.23;;;5.78;;
62332;SDS011;48624;49.812;8.562;2023-03-01T15:06:03;8.63;;;6.18;;
62332;SDS011;48624;49.812;8.562;2023-03-01T15:08:30;9.50;;;5.65;;
62332;SDS011;48624;49.812;8.562;2023-03-01T15:13:38;10.15;;;6.50;;
62332;SDS011;48624;49.812;8.562;2023-03-01T15:18:32;11.02;;;5.43;;
62332;SDS011;48624;49.812;8.562;2023-03-01T15:23:57;10.95;;;7.65;;
62332;SDS011;48624;49.812;8.562;2023-03-01T15:26:29;9.60;;;7.38;;
62332;SDS011;48624;49.812;8.562;2023-03-01T15:28:59;10.38;;;6.35;;
62332;SDS011;48624;49.812;8.562;2023-03-01T15:31:36;9.52;;;6.47;;
62332;SDS011;48624;49.812;8.562;2023-03-01T15:39:31;11.05;;;7.10;;
62332;SDS011;48624;49.812;8.562;2023-03-01T15:42:04;14.13;;;6.65;;
62332;SDS011;48624;49.812;8.562;2023-03-01T15:44:32;7.07;;;6.00;;
62332;SDS011;48624;49.812;8.562;2023-03-01T15:47:03;10.40;;;6.75;;
62332;SDS011;48624;49.812;8.562;2023-03-01T15:49:50;10.00;;;6.82;;
62332;SDS011;48624;49.812;8.562;2023-03-01T15:52:27;10.50;;;6.32;;
62332;SDS011;48624;49.812;8.562;2023-03-01T15:55:00;10.75;;;6.80;;
62332;SDS011;48624;49.812;8.562;2023-03-01T15:57:28;13.20;;;6.72;;
62332;SDS011;48624;49.812;8.562;2023-03-01T15:59:54;11.98;;;8.18;;
62332;SDS011;48624;49.812;8.562;2023-03-01T16:02:19;15.07;;;7.25;;
62332;SDS011;48624;49.812;8.562;2023-03-01T16:04:46;9.50;;;6.90;;
62332;SDS011;48624;49.812;8.562;2023-03-01T16:07:12;11.00;;;6.32;;
62332;SDS011;48624;49.812;8.562;2023-03-01T16:09:46;9.07;;;5.38;;
62332;SDS011;48624;49.812;8.562;2023-03-01T16:12:12;10.50;;;6.70;;
62332;SDS011;48624;49.812;8.562;2023-03-01T16:14:41;12.13;;;6.55;;
62332;SDS011;48624;49.812;8.562;2023-03-01T16:17:06;9.38;;;6.50;;
62332;SDS011;48624;49.812;8.562;2023-03-01T16:19:38;11.85;;;7.43;;
62332;SDS011;48624;49.812;8.562;2023-03-01T16:22:06;12.15;;;7.57;;
62332;SDS011;48624;49.812;8.562;2023-03-01T16:24:31;12.02;;;6.85;;
62332;SDS011;48624;49.812;8.562;2023-03-01T16:26:56;8.30;;;6.30;;
62332;SDS011;48624;49.812;8.562;2023-03-01T16:29:23;12.30;;;7.40;;
62332;SDS011;48624;49.812;8.562;2023-03-01T16:31:48;10.25;;;6.75;;
62332;SDS011;48624;49.812;8.562;2023-03-01T16:34:13;11.38;;;6.90;;
62332;SDS011;48624;49.812;8.562;2023-03-01T16:36:39;11.48;;;7.65;;
62332;SDS011;48624;49.812;8.562;2023-03-01T16:39:05;11.02;;;7.22;;
62332;SDS011;48624;49.812;8.562;2023-03-01T16:41:31;15.77;;;8.52;;
62332;SDS011;48624;49.812;8.562;2023-03-01T16:43:56;11.00;;;7.53;;
62332;SDS011;48624;49.812;8.562;2023-03-01T16:46:23;12.85;;;8.02;;
62332;SDS011;48624;49.812;8.562;2023-03-01T16:48:53;15.07;;;7.88;;
62332;SDS011;48624;49.812;8.562;2023-03-01T16:51:19;12.35;;;6.88;;
62332;SDS011;48624;49.812;8.562;2023-03-01T16:53:45;12.65;;;7.95;;
62332;SDS011;48624;49.812;8.562;2023-03-01T16:56:11;12.85;;;6.95;;
62332;SDS011;48624;49.812;8.562;2023-03-01T16:58:37;7.80;;;5.13;;
62332;SDS011;48624;49.812;8.562;2023-03-01T17:01:05;12.00;;;6.95;;